createdAt,value
2019-02-06T00:02:19.467Z,88.12
2019-02-06T00:04:52.535Z,88.07
2019-02-06T00:07:25.339Z,88.15
2019-02-06T00:09:57.278Z,87.10
2019-02-06T00:12:29.486Z,87.12
2019-02-06T00:15:02.230Z,87.39
2019-02-06T00:17:33.825Z,87.02
2019-02-06T00:20:07.940Z,86.89
2019-02-06T00:22:40.399Z,85.86
2019-02-06T00:25:14.137Z,85.59
2019-02-06T00:27:46.567Z,84.55
2019-02-06T00:30:19.435Z,82.80
2019-02-06T00:32:50.692Z,81.94
2019-02-06T00:35:25.688Z,82.14
2019-02-06T00:37:55.751Z,83.08
2019-02-06T00:40:26.959Z,83.26
2019-02-06T00:42:58.197Z,84.21
2019-02-06T00:45:31.566Z,84.72
2019-02-06T00:48:05.481Z,83.74
2019-02-06T00:50:36.749Z,82.44
2019-02-06T00:53:08.611Z,81.79
2019-02-06T00:55:42.569Z,80.96
2019-02-06T00:58:16.605Z,80.73
2019-02-06T01:00:49.504Z,80.31
2019-02-06T01:03:20.737Z,79.69
2019-02-06T01:05:51.964Z,78.97
2019-02-06T01:08:27.430Z,78.76
2019-02-06T01:11:01.543Z,78.88
2019-02-06T01:13:32.948Z,78.92
2019-02-06T01:16:05.490Z,79.52
2019-02-06T01:18:38.703Z,79.85
2019-02-06T01:21:12.897Z,78.58
2019-02-06T01:23:46.725Z,79.85
2019-02-06T01:26:20.737Z,79.70
2019-02-06T01:28:55.967Z,83.46
2019-02-06T01:31:31.038Z,85.53
2019-02-06T01:34:02.357Z,85.87
2019-02-06T01:36:33.641Z,86.68
2019-02-06T01:39:11.015Z,87.03
2019-02-06T01:41:44.015Z,86.75
2019-02-06T01:44:17.908Z,86.50
2019-02-06T01:46:49.905Z,86.31
2019-02-06T01:49:22.731Z,85.93
2019-02-06T01:51:54.239Z,86.48
2019-02-06T01:54:27.067Z,86.54
2019-02-06T01:56:58.816Z,87.07
2019-02-06T01:59:32.651Z,86.78
2019-02-06T02:02:06.831Z,84.92
2019-02-06T02:04:38.928Z,84.64
2019-02-06T02:07:12.455Z,84.58
2019-02-06T02:09:45.084Z,85.09
2019-02-06T02:12:17.111Z,85.39
2019-02-06T02:14:51.674Z,84.90
2019-02-06T02:17:24.957Z,84.38
2019-02-06T02:19:59.274Z,85.56
2019-02-06T02:22:32.691Z,85.48
2019-02-06T02:25:05.191Z,85.11
2019-02-06T02:27:37.687Z,83.90
2019-02-06T02:30:11.098Z,84.58
2019-02-06T02:32:43.991Z,84.87
2019-02-06T02:35:18.172Z,84.50
2019-02-06T02:37:51.690Z,83.73
2019-02-06T02:40:25.828Z,82.96
2019-02-06T02:42:58.749Z,81.55
2019-02-06T02:45:33.073Z,81.89
2019-02-06T02:48:07.987Z,81.86
2019-02-06T02:50:42.820Z,82.19
2019-02-06T02:53:14.448Z,82.76
2019-02-06T02:55:48.259Z,83.01
2019-02-06T02:58:19.498Z,83.54
2019-02-06T03:01:15.686Z,83.16
2019-02-06T03:04:04.627Z,83.58
2019-02-06T03:06:36.112Z,82.91
2019-02-06T03:09:12.649Z,82.43
2019-02-06T03:11:45.436Z,81.96
2019-02-06T03:14:19.061Z,80.02
2019-02-06T03:16:53.110Z,80.84
2019-02-06T03:19:27.294Z,81.38
2019-02-06T03:21:58.536Z,81.17
2019-02-06T03:24:32.351Z,81.03
2019-02-06T03:27:06.461Z,80.44
2019-02-06T03:29:39.151Z,79.49
2019-02-06T03:32:11.128Z,80.24
2019-02-06T03:34:45.147Z,80.62
2019-02-06T03:37:19.032Z,81.18
2019-02-06T03:39:50.249Z,80.90
2019-02-06T03:42:23.306Z,80.50
2019-02-06T03:44:58.889Z,81.27
2019-02-06T03:47:31.364Z,80.87
2019-02-06T03:50:07.146Z,80.76
2019-02-06T03:52:39.526Z,80.52
2019-02-06T03:55:11.125Z,80.91
2019-02-06T03:57:44.392Z,81.04
2019-02-06T04:00:18.440Z,80.79
2019-02-06T04:02:53.960Z,80.94
2019-02-06T04:05:28.146Z,83.65
2019-02-06T04:08:00.525Z,84.29
2019-02-06T04:10:32.320Z,84.17
2019-02-06T04:13:06.207Z,83.47
2019-02-06T04:15:41.123Z,83.15
2019-02-06T04:18:14.633Z,82.51
2019-02-06T04:20:47.528Z,82.10
2019-02-06T04:23:21.331Z,81.90
2019-02-06T04:25:54.232Z,81.36
2019-02-06T04:28:27.487Z,81.11
2019-02-06T04:31:00.455Z,80.91
2019-02-06T04:33:32.986Z,80.82
2019-02-06T04:36:05.915Z,80.52
2019-02-06T04:38:41.149Z,80.54
2019-02-06T04:41:13.331Z,81.08
2019-02-06T04:43:46.440Z,81.60
2019-02-06T04:46:20.650Z,81.44
2019-02-06T04:48:53.951Z,80.49
2019-02-06T04:51:25.732Z,80.14
2019-02-06T04:53:59.744Z,79.90
2019-02-06T04:56:32.828Z,80.38
2019-02-06T04:59:04.699Z,80.38
2019-02-06T05:01:36.631Z,79.99
2019-02-06T05:04:09.820Z,80.00
2019-02-06T05:06:43.557Z,80.35
2019-02-06T05:09:14.883Z,80.10
2019-02-06T05:11:48.613Z,79.98
2019-02-06T05:14:23.100Z,79.62
2019-02-06T05:16:56.661Z,79.83
2019-02-06T05:19:27.897Z,79.80
2019-02-06T05:21:59.989Z,79.81
2019-02-06T05:24:32.923Z,79.45
2019-02-06T05:27:04.772Z,79.56
2019-02-06T05:29:37.765Z,79.47
2019-02-06T05:32:11.744Z,79.27
2019-02-06T05:34:47.034Z,79.57
2019-02-06T05:37:31.539Z,79.42
2019-02-06T05:39:57.756Z,79.26
2019-02-06T05:42:30.965Z,79.28
2019-02-06T05:45:02.961Z,79.76
2019-02-06T05:47:35.826Z,80.10
2019-02-06T05:50:10.821Z,79.80
2019-02-06T05:52:43.807Z,79.37
2019-02-06T05:55:17.085Z,79.10
2019-02-06T05:57:48.877Z,79.32
2019-02-06T06:00:27.647Z,79.47
2019-02-06T06:02:58.885Z,79.73
2019-02-06T06:05:30.445Z,80.21
2019-02-06T06:08:03.853Z,80.10
2019-02-06T06:10:36.012Z,79.66
2019-02-06T06:13:09.111Z,79.61
2019-02-06T06:15:44.602Z,80.03
2019-02-06T06:18:17.020Z,80.38
2019-02-06T06:20:51.012Z,80.29
2019-02-06T06:23:22.230Z,80.08
2019-02-06T06:25:55.121Z,79.95
2019-02-06T06:28:27.180Z,79.92
2019-02-06T06:31:00.966Z,79.70
2019-02-06T06:33:33.846Z,80.02
2019-02-06T06:36:06.439Z,80.31
2019-02-06T06:38:39.115Z,80.61
2019-02-06T06:41:11.282Z,80.18
2019-02-06T06:43:43.140Z,79.87
2019-02-06T06:46:16.141Z,80.13
2019-02-06T06:48:53.438Z,80.35
2019-02-06T06:51:28.935Z,80.84
2019-02-06T06:54:02.928Z,80.79
2019-02-06T06:56:36.451Z,80.69
2019-02-06T06:59:08.233Z,79.81
2019-02-06T07:01:42.392Z,80.00
2019-02-06T07:04:14.207Z,81.21
2019-02-06T07:06:48.014Z,81.30
2019-02-06T07:09:21.310Z,81.92
2019-02-06T07:11:55.258Z,82.29
2019-02-06T07:14:26.923Z,80.89
2019-02-06T07:17:00.316Z,80.96
2019-02-06T07:19:33.158Z,81.01
2019-02-06T07:22:05.261Z,81.11
2019-02-06T07:24:39.360Z,80.91
2019-02-06T07:27:14.781Z,80.34
2019-02-06T07:29:47.764Z,81.05
2019-02-06T07:32:21.406Z,81.94
2019-02-06T07:34:55.407Z,81.54
2019-02-06T07:37:29.244Z,80.82
2019-02-06T07:40:03.285Z,80.20
2019-02-06T07:42:36.347Z,79.86
2019-02-06T07:45:09.878Z,80.16
2019-02-06T07:47:42.430Z,79.99
2019-02-06T07:50:18.790Z,80.05
2019-02-06T07:52:50.572Z,80.02
2019-02-06T07:55:24.361Z,80.63
2019-02-06T07:57:56.565Z,81.03
2019-02-06T08:00:29.203Z,80.44
2019-02-06T08:03:00.585Z,80.32
2019-02-06T08:05:33.332Z,80.14
2019-02-06T08:08:05.732Z,80.99
2019-02-06T08:10:39.645Z,81.33
2019-02-06T08:13:12.533Z,81.42
2019-02-06T08:15:46.557Z,81.48
2019-02-06T08:18:20.556Z,81.46
2019-02-06T08:20:51.835Z,81.43
2019-02-06T08:23:24.738Z,81.53
2019-02-06T08:25:56.497Z,82.23
2019-02-06T08:28:30.417Z,82.38
2019-02-06T08:31:04.358Z,82.96
2019-02-06T08:33:38.327Z,82.81
2019-02-06T08:36:13.001Z,80.88
2019-02-06T08:38:50.255Z,80.74
2019-02-06T08:41:25.297Z,80.43
2019-02-06T08:43:57.736Z,79.83
2019-02-06T08:46:30.317Z,80.59
2019-02-06T08:49:02.556Z,82.39
2019-02-06T08:51:33.803Z,83.21
2019-02-06T08:54:07.678Z,83.05
2019-02-06T08:56:41.685Z,82.95
2019-02-06T08:59:14.661Z,82.61
2019-02-06T09:01:49.212Z,81.83
2019-02-06T09:04:22.774Z,80.85
2019-02-06T09:06:54.035Z,79.99
2019-02-06T09:09:25.278Z,79.05
2019-02-06T09:11:59.137Z,79.14
2019-02-06T09:14:33.024Z,78.75
2019-02-06T09:17:06.947Z,78.65
2019-02-06T09:19:39.692Z,78.55
2019-02-06T09:22:11.664Z,78.05
2019-02-06T09:24:45.662Z,77.28
2019-02-06T09:27:16.866Z,77.11
2019-02-06T09:29:49.664Z,76.63
2019-02-06T09:32:21.770Z,75.90
2019-02-06T09:34:55.832Z,75.83
2019-02-06T09:37:29.891Z,76.57
2019-02-06T09:40:02.126Z,76.19
2019-02-06T09:42:33.432Z,75.37
2019-02-06T09:45:07.257Z,75.16
2019-02-06T09:47:39.596Z,74.96
2019-02-06T09:50:14.344Z,76.37
2019-02-06T09:52:47.891Z,76.43
2019-02-06T09:55:21.911Z,75.68
2019-02-06T09:57:54.803Z,76.58
2019-02-06T10:00:32.607Z,73.75
2019-02-06T10:03:06.357Z,73.83
2019-02-06T10:05:39.371Z,66.77
2019-02-06T10:08:10.992Z,63.77
2019-02-06T10:10:43.000Z,63.16
2019-02-06T10:13:16.734Z,61.63
2019-02-06T10:15:50.023Z,58.14
2019-02-06T10:18:21.244Z,56.37
2019-02-06T10:20:53.543Z,55.09
2019-02-06T10:23:25.922Z,54.89
2019-02-06T10:25:59.967Z,54.33
2019-02-06T10:28:32.610Z,51.33
2019-02-06T10:31:05.050Z,50.60
2019-02-06T10:33:37.199Z,51.36
2019-02-06T10:36:11.477Z,52.83
2019-02-06T10:38:43.994Z,48.76
2019-02-06T10:41:15.230Z,49.84
2019-02-06T10:43:49.376Z,50.80
2019-02-06T10:46:21.657Z,51.14
2019-02-06T10:48:56.546Z,49.41
2019-02-06T10:51:28.276Z,51.13
2019-02-06T10:54:01.291Z,49.66
2019-02-06T10:56:33.541Z,48.89
2019-02-06T10:59:06.771Z,49.11
2019-02-06T11:01:40.755Z,47.97
2019-02-06T11:04:15.082Z,46.87
2019-02-06T11:06:49.811Z,46.53
2019-02-06T11:09:22.764Z,48.68
2019-02-06T11:11:56.561Z,49.02
2019-02-06T11:14:31.808Z,48.62
2019-02-06T11:17:04.223Z,48.98
2019-02-06T11:19:37.699Z,52.33
2019-02-06T11:22:09.489Z,55.38
2019-02-06T11:24:43.480Z,54.20
2019-02-06T11:27:17.107Z,52.88
2019-02-06T11:29:52.081Z,52.36
2019-02-06T11:32:24.543Z,51.98
2019-02-06T11:34:56.912Z,51.69
2019-02-06T11:37:29.379Z,52.78
2019-02-06T11:40:03.584Z,51.49
2019-02-06T11:42:36.438Z,51.57
2019-02-06T11:45:10.526Z,53.56
2019-02-06T11:47:42.526Z,53.80
2019-02-06T11:50:20.455Z,53.38
2019-02-06T11:52:53.647Z,52.86
2019-02-06T11:55:25.835Z,49.71
2019-02-06T11:57:58.503Z,49.31
2019-02-06T12:00:59.312Z,45.21
2019-02-06T12:03:30.709Z,48.11
2019-02-06T12:06:02.045Z,48.74
2019-02-06T12:08:33.789Z,46.18
2019-02-06T12:11:06.893Z,42.88
2019-02-06T12:13:40.681Z,44.16
2019-02-06T12:16:14.662Z,43.87
2019-02-06T12:18:52.294Z,44.52
2019-02-06T12:21:25.749Z,42.01
2019-02-06T12:24:01.654Z,40.85
2019-02-06T12:26:33.529Z,43.05
2019-02-06T12:29:05.846Z,44.15
2019-02-06T12:31:37.768Z,46.36
2019-02-06T12:34:09.638Z,45.61
2019-02-06T12:36:42.775Z,46.11
2019-02-06T12:39:14.331Z,42.84
2019-02-06T12:41:45.617Z,44.07
2019-02-06T12:44:19.561Z,46.71
2019-02-06T12:46:51.811Z,47.82
2019-02-06T12:49:25.326Z,48.08
2019-02-06T12:51:57.756Z,51.66
2019-02-06T12:54:29.884Z,51.72
2019-02-06T12:57:02.725Z,51.01
2019-02-06T12:59:34.357Z,54.27
2019-02-06T13:02:08.203Z,53.10
2019-02-06T13:04:41.833Z,53.87
2019-02-06T13:07:17.053Z,54.72
2019-02-06T13:09:50.876Z,55.34
2019-02-06T13:12:24.043Z,53.12
2019-02-06T13:14:55.824Z,51.48
2019-02-06T13:17:28.123Z,52.64
2019-02-06T13:19:59.401Z,54.00
2019-02-06T13:22:32.902Z,55.82
2019-02-06T13:25:06.344Z,54.95
2019-02-06T13:27:40.649Z,53.65
2019-02-06T13:30:18.551Z,56.73
2019-02-06T13:32:53.850Z,56.52
2019-02-06T13:35:25.915Z,57.65
2019-02-06T13:37:59.852Z,55.09
2019-02-06T13:40:44.833Z,56.21
2019-02-06T13:43:07.873Z,53.87
2019-02-06T13:45:47.297Z,55.70
2019-02-06T13:48:18.893Z,55.06
2019-02-06T13:50:51.934Z,53.78
2019-02-06T13:53:25.927Z,52.33
2019-02-06T13:55:57.127Z,55.72
2019-02-06T13:58:28.379Z,55.64
2019-02-06T14:00:59.947Z,54.50
2019-02-06T14:03:33.020Z,52.84
2019-02-06T14:06:07.150Z,50.64
2019-02-06T14:08:40.030Z,48.35
2019-02-06T14:11:11.973Z,48.13
2019-02-06T14:13:43.176Z,48.52
2019-02-06T14:16:14.514Z,48.99
2019-02-06T14:18:46.377Z,46.57
2019-02-06T14:21:18.103Z,47.19
2019-02-06T14:24:15.761Z,44.51
2019-02-06T14:27:24.298Z,47.17
2019-02-06T14:30:50.508Z,48.99
2019-02-06T14:33:39.467Z,49.74
2019-02-06T14:36:41.179Z,48.08
2019-02-06T14:39:29.643Z,47.17
2019-02-06T14:42:39.876Z,49.49
2019-02-06T14:46:02.978Z,49.09
2019-02-06T14:49:11.087Z,52.18
2019-02-06T14:52:28.950Z,53.41
2019-02-06T14:55:21.139Z,48.97
2019-02-06T14:58:55.603Z,49.27
2019-02-06T15:01:56.327Z,48.19
2019-02-06T15:05:08.501Z,48.63
2019-02-06T15:08:25.456Z,49.00
2019-02-06T15:11:25.409Z,52.84
2019-02-06T15:14:26.487Z,53.25
2019-02-06T15:17:46.444Z,53.39
2019-02-06T15:20:47.043Z,54.87
2019-02-06T15:23:36.474Z,53.29
2019-02-06T15:26:51.373Z,53.17
2019-02-06T15:29:46.247Z,56.98
2019-02-06T15:33:26.798Z,57.44
2019-02-06T15:36:20.774Z,59.65
2019-02-06T15:39:40.929Z,60.29
2019-02-06T15:42:43.178Z,60.15
2019-02-06T15:45:34.129Z,60.02
2019-02-06T15:48:11.148Z,60.04
2019-02-06T15:51:09.671Z,60.81
2019-02-06T15:54:08.014Z,63.17
2019-02-06T15:57:23.409Z,64.12
2019-02-06T16:00:31.704Z,64.28
2019-02-06T16:04:17.910Z,65.00
2019-02-06T16:07:28.937Z,64.54
2019-02-06T16:10:38.164Z,65.67
2019-02-06T16:13:47.356Z,65.58
2019-02-06T16:17:10.628Z,65.99
2019-02-06T16:20:15.535Z,66.62
2019-02-06T16:23:35.682Z,66.50
2019-02-06T16:26:41.377Z,66.77
2019-02-06T16:30:00.237Z,67.34
2019-02-06T16:33:25.077Z,68.15
2019-02-06T16:36:32.804Z,68.27
2019-02-06T16:39:28.938Z,68.86
2019-02-06T16:42:41.322Z,68.80
2019-02-06T16:45:51.385Z,68.17
2019-02-06T16:48:56.774Z,68.25
2019-02-06T16:52:22.458Z,69.41
2019-02-06T16:55:19.065Z,69.84
2019-02-06T16:58:39.080Z,69.32
2019-02-06T17:02:01.567Z,69.62
2019-02-06T17:05:12.806Z,69.94
2019-02-06T17:08:06.182Z,69.79
2019-02-06T17:11:26.620Z,70.04
2019-02-06T17:14:26.098Z,70.90
2019-02-06T17:17:32.690Z,70.32
2019-02-06T17:20:48.527Z,70.38
2019-02-06T17:23:42.360Z,70.54
2019-02-06T17:26:55.309Z,70.36
2019-02-06T17:30:03.987Z,70.70
2019-02-06T17:33:01.826Z,70.54
2019-02-06T17:36:08.073Z,71.50
2019-02-06T17:39:23.858Z,71.14
2019-02-06T17:42:24.623Z,71.03
2019-02-06T17:45:27.095Z,71.75
2019-02-06T17:48:35.271Z,71.81
2019-02-06T17:51:48.511Z,71.73
2019-02-06T17:54:54.610Z,72.23
2019-02-06T17:57:26.059Z,73.66
2019-02-06T18:00:00.571Z,73.89
2019-02-06T18:02:31.928Z,74.23
2019-02-06T18:05:06.050Z,74.41
2019-02-06T18:07:40.193Z,73.72
2019-02-06T18:10:15.684Z,73.44
2019-02-06T18:12:47.126Z,72.88
2019-02-06T18:15:19.061Z,73.20
2019-02-06T18:17:50.308Z,73.45
2019-02-06T18:20:23.081Z,72.87
2019-02-06T18:22:55.892Z,72.69
2019-02-06T18:25:28.139Z,72.70
2019-02-06T18:28:02.383Z,73.03
2019-02-06T18:30:34.076Z,73.13
2019-02-06T18:33:07.316Z,73.67
2019-02-06T18:35:40.603Z,73.41
2019-02-06T18:38:14.059Z,73.32
2019-02-06T18:40:45.828Z,73.21
2019-02-06T18:43:17.297Z,73.23
2019-02-06T18:45:51.171Z,73.88
2019-02-06T18:48:25.679Z,74.82
2019-02-06T18:50:58.339Z,76.03
2019-02-06T18:53:29.570Z,75.36
2019-02-06T18:56:03.203Z,74.95
2019-02-06T18:58:34.498Z,74.57
2019-02-06T19:01:07.120Z,74.21
2019-02-06T19:03:42.456Z,74.20
2019-02-06T19:06:18.817Z,74.52
2019-02-06T19:08:53.971Z,74.58
2019-02-06T19:11:27.758Z,74.33
2019-02-06T19:14:02.795Z,74.43
2019-02-06T19:16:34.209Z,74.69
2019-02-06T19:19:07.633Z,74.66
2019-02-06T19:21:40.384Z,74.30
2019-02-06T19:24:11.578Z,74.96
2019-02-06T19:26:43.904Z,75.07
2019-02-06T19:29:16.532Z,74.81
2019-02-06T19:31:49.844Z,75.43
2019-02-06T19:34:21.046Z,75.21
2019-02-06T19:36:52.277Z,74.77
2019-02-06T19:39:25.805Z,74.51
2019-02-06T19:41:59.583Z,74.51
2019-02-06T19:44:33.578Z,74.94
2019-02-06T19:47:07.603Z,74.74
2019-02-06T19:49:41.607Z,75.31
2019-02-06T19:52:13.049Z,75.07
2019-02-06T19:54:48.426Z,75.84
2019-02-06T19:57:20.554Z,76.55
2019-02-06T19:59:56.448Z,77.34
2019-02-06T20:02:28.721Z,77.38
2019-02-06T20:05:01.738Z,76.32
2019-02-06T20:07:34.027Z,77.00
2019-02-06T20:10:08.858Z,76.86
2019-02-06T20:12:41.804Z,76.72
2019-02-06T20:15:16.181Z,76.43
2019-02-06T20:17:49.801Z,76.60
2019-02-06T20:20:24.958Z,77.35
2019-02-06T20:22:58.503Z,77.18
2019-02-06T20:25:31.932Z,76.49
2019-02-06T20:28:06.256Z,76.08
2019-02-06T20:30:39.021Z,76.53
2019-02-06T20:33:11.182Z,77.42
2019-02-06T20:35:44.896Z,77.52
2019-02-06T20:38:20.488Z,77.25
2019-02-06T20:40:55.130Z,77.03
2019-02-06T20:43:28.102Z,76.42
2019-02-06T20:46:01.105Z,76.87
2019-02-06T20:48:34.861Z,76.99
2019-02-06T20:51:06.299Z,77.19
2019-02-06T20:53:40.477Z,76.84
2019-02-06T20:56:14.036Z,76.62
2019-02-06T20:58:48.140Z,76.62
2019-02-06T21:01:22.877Z,76.44
2019-02-06T21:03:56.204Z,77.40
2019-02-06T21:06:29.297Z,78.24
2019-02-06T21:09:11.555Z,77.99
2019-02-06T21:11:43.360Z,77.70
2019-02-06T21:14:16.930Z,77.22
2019-02-06T21:16:48.315Z,77.41
2019-02-06T21:19:22.578Z,77.24
2019-02-06T21:21:56.361Z,77.33
2019-02-06T21:24:29.090Z,77.58
2019-02-06T21:27:03.151Z,77.68
2019-02-06T21:29:34.609Z,77.28
2019-02-06T21:32:06.053Z,76.86
2019-02-06T21:34:39.247Z,76.71
2019-02-06T21:37:14.528Z,75.73
2019-02-06T21:39:48.829Z,76.03
2019-02-06T21:42:22.460Z,75.74
2019-02-06T21:44:54.902Z,76.83
2019-02-06T21:47:26.180Z,77.44
2019-02-06T21:49:59.400Z,77.01
2019-02-06T21:52:33.117Z,76.34
2019-02-06T21:55:05.662Z,76.58
2019-02-06T21:57:38.164Z,77.44
2019-02-06T22:00:21.128Z,77.17
2019-02-06T22:02:55.302Z,77.03
2019-02-06T22:05:31.111Z,77.16
2019-02-06T22:08:03.019Z,76.90
2019-02-06T22:10:34.551Z,76.42
2019-02-06T22:13:07.423Z,76.61
2019-02-06T22:15:39.151Z,75.86
2019-02-06T22:18:12.272Z,75.74
2019-02-06T22:20:46.268Z,75.57
2019-02-06T22:23:20.297Z,74.89
2019-02-06T22:25:54.215Z,76.55
2019-02-06T22:28:25.627Z,77.40
2019-02-06T22:30:59.336Z,77.23
2019-02-06T22:33:32.254Z,76.92
2019-02-06T22:36:04.279Z,76.71
2019-02-06T22:38:37.433Z,76.34
2019-02-06T22:41:11.458Z,76.29
2019-02-06T22:43:43.403Z,75.85
2019-02-06T22:46:16.379Z,75.99
2019-02-06T22:48:49.194Z,76.14
2019-02-06T22:51:21.540Z,76.19
2019-02-06T22:53:57.686Z,75.68
2019-02-06T22:56:29.304Z,76.05
2019-02-06T22:59:02.379Z,75.87
2019-02-06T23:01:43.003Z,75.92
2019-02-06T23:04:14.490Z,75.79
2019-02-06T23:06:47.414Z,75.79
2019-02-06T23:09:22.985Z,76.23
2019-02-06T23:11:56.025Z,76.01
2019-02-06T23:14:30.619Z,76.04
2019-02-06T23:17:03.466Z,76.80
2019-02-06T23:19:34.788Z,76.71
2019-02-06T23:22:09.871Z,76.52
2019-02-06T23:24:43.640Z,76.45
2019-02-06T23:27:16.642Z,75.71
2019-02-06T23:29:50.430Z,75.36
2019-02-06T23:32:26.200Z,75.21
2019-02-06T23:34:58.659Z,76.67
2019-02-06T23:37:30.540Z,76.41
2019-02-06T23:40:03.531Z,76.32
2019-02-06T23:42:34.921Z,75.91
2019-02-06T23:45:08.134Z,75.61
2019-02-06T23:47:41.545Z,76.07
2019-02-06T23:50:15.601Z,76.36
2019-02-06T23:52:49.605Z,76.10
2019-02-06T23:55:23.549Z,76.43
2019-02-06T23:57:59.027Z,76.02
